sensor_id;sensor_type;location;lat;lon;timestamp;temperature;humidity
7254;DHT22;4060;49.186;9.226;2022-11-23T00:00:30;10.30;66.50
7254;DHT22;4060;49.186;9.226;2022-11-23T00:02:59;10.30;66.60
7254;DHT22;4060;49.186;9.226;2022-11-23T00:05:30;10.20;66.40
7254;DHT22;4060;49.186;9.226;2022-11-23T00:08:00;10.20;66.50
7254;DHT22;4060;49.186;9.226;2022-11-23T00:10:31;10.20;66.40
7254;DHT22;4060;49.186;9.226;2022-11-23T00:13:00;10.20;66.40
7254;DHT22;4060;49.186;9.226;2022-11-23T00:15:30;10.20;66.40
7254;DHT22;4060;49.186;9.226;2022-11-23T00:18:01;10.20;66.40
7254;DHT22;4060;49.186;9.226;2022-11-23T00:20:31;10.20;66.40
7254;DHT22;4060;49.186;9.226;2022-11-23T00:23:00;10.20;66.40
7254;DHT22;4060;49.186;9.226;2022-11-23T00:25:31;10.20;66.40
7254;DHT22;4060;49.186;9.226;2022-11-23T00:28:02;10.20;66.50
7254;DHT22;4060;49.186;9.226;2022-11-23T00:30:32;10.20;66.50
7254;DHT22;4060;49.186;9.226;2022-11-23T00:33:01;10.20;66.50
7254;DHT22;4060;49.186;9.226;2022-11-23T00:35:30;10.20;66.50
7254;DHT22;4060;49.186;9.226;2022-11-23T00:37:59;10.10;66.50
7254;DHT22;4060;49.186;9.226;2022-11-23T00:40:31;10.10;66.40
7254;DHT22;4060;49.186;9.226;2022-11-23T00:43:00;10.10;66.40
7254;DHT22;4060;49.186;9.226;2022-11-23T00:45:29;10.10;66.40
7254;DHT22;4060;49.186;9.226;2022-11-23T00:47:59;10.10;66.40
7254;DHT22;4060;49.186;9.226;2022-11-23T00:50:28;10.10;66.40
7254;DHT22;4060;49.186;9.226;2022-11-23T00:52:57;10.10;66.50
7254;DHT22;4060;49.186;9.226;2022-11-23T00:55:27;10.10;66.40
7254;DHT22;4060;49.186;9.226;2022-11-23T00:57:59;10.10;66.40
7254;DHT22;4060;49.186;9.226;2022-11-23T01:00:29;10.10;66.40
7254;DHT22;4060;49.186;9.226;2022-11-23T01:02:58;10.10;66.40
7254;DHT22;4060;49.186;9.226;2022-11-23T01:05:27;10.10;66.40
7254;DHT22;4060;49.186;9.226;2022-11-23T01:07:56;10.10;66.50
7254;DHT22;4060;49.186;9.226;2022-11-23T01:10:26;10.00;66.30
7254;DHT22;4060;49.186;9.226;2022-11-23T01:12:55;10.00;66.30
7254;DHT22;4060;49.186;9.226;2022-11-23T01:15:28;10.00;66.30
7254;DHT22;4060;49.186;9.226;2022-11-23T01:17:58;10.00;66.40
7254;DHT22;4060;49.186;9.226;2022-11-23T01:20:28;10.00;66.30
7254;DHT22;4060;49.186;9.226;2022-11-23T01:22:57;10.00;66.40
7254;DHT22;4060;49.186;9.226;2022-11-23T01:25:26;10.00;66.50
7254;DHT22;4060;49.186;9.226;2022-11-23T01:27:56;10.00;66.50
7254;DHT22;4060;49.186;9.226;2022-11-23T01:30:28;10.00;66.50
7254;DHT22;4060;49.186;9.226;2022-11-23T01:32:57;10.00;66.50
7254;DHT22;4060;49.186;9.226;2022-11-23T01:35:28;10.00;66.40
7254;DHT22;4060;49.186;9.226;2022-11-23T01:37:57;10.00;66.40
7254;DHT22;4060;49.186;9.226;2022-11-23T01:40:26;10.00;66.50
7254;DHT22;4060;49.186;9.226;2022-11-23T01:42:57;10.00;66.50
7254;DHT22;4060;49.186;9.226;2022-11-23T01:45:36;10.00;66.50
7254;DHT22;4060;49.186;9.226;2022-11-23T01:48:10;10.00;66.50
7254;DHT22;4060;49.186;9.226;2022-11-23T01:50:42;10.00;66.50
7254;DHT22;4060;49.186;9.226;2022-11-23T01:53:13;9.90;67.70
7254;DHT22;4060;49.186;9.226;2022-11-23T01:55:44;9.90;67.80
7254;DHT22;4060;49.186;9.226;2022-11-23T01:58:16;9.90;67.80
7254;DHT22;4060;49.186;9.226;2022-11-23T02:00:49;9.90;67.80
7254;DHT22;4060;49.186;9.226;2022-11-23T02:03:18;9.90;68.60
7254;DHT22;4060;49.186;9.226;2022-11-23T02:05:49;9.90;67.90
7254;DHT22;4060;49.186;9.226;2022-11-23T02:08:21;9.90;67.90
7254;DHT22;4060;49.186;9.226;2022-11-23T02:10:50;9.90;67.80
7254;DHT22;4060;49.186;9.226;2022-11-23T02:13:20;9.90;67.90
7254;DHT22;4060;49.186;9.226;2022-11-23T02:15:52;9.90;67.90
7254;DHT22;4060;49.186;9.226;2022-11-23T02:18:25;9.90;67.90
7254;DHT22;4060;49.186;9.226;2022-11-23T02:20:57;9.90;67.90
7254;DHT22;4060;49.186;9.226;2022-11-23T02:23:33;9.90;67.90
7254;DHT22;4060;49.186;9.226;2022-11-23T02:26:10;9.90;68.00
7254;DHT22;4060;49.186;9.226;2022-11-23T02:28:43;9.90;68.00
7254;DHT22;4060;49.186;9.226;2022-11-23T02:31:13;9.90;68.00
7254;DHT22;4060;49.186;9.226;2022-11-23T02:33:43;9.90;68.80
7254;DHT22;4060;49.186;9.226;2022-11-23T02:36:34;9.90;68.00
7254;DHT22;4060;49.186;9.226;2022-11-23T02:39:10;9.90;68.00
7254;DHT22;4060;49.186;9.226;2022-11-23T02:41:43;9.80;68.70
7254;DHT22;4060;49.186;9.226;2022-11-23T02:44:23;9.80;68.00
7254;DHT22;4060;49.186;9.226;2022-11-23T02:46:54;9.80;68.00
7254;DHT22;4060;49.186;9.226;2022-11-23T02:49:23;9.80;68.00
7254;DHT22;4060;49.186;9.226;2022-11-23T02:51:53;9.80;68.10
7254;DHT22;4060;49.186;9.226;2022-11-23T02:54:22;9.80;68.10
7254;DHT22;4060;49.186;9.226;2022-11-23T02:56:53;9.80;68.10
7254;DHT22;4060;49.186;9.226;2022-11-23T02:59:23;9.80;68.10
7254;DHT22;4060;49.186;9.226;2022-11-23T03:01:52;9.80;68.10
7254;DHT22;4060;49.186;9.226;2022-11-23T03:04:22;9.80;68.10
7254;DHT22;4060;49.186;9.226;2022-11-23T03:06:51;9.80;68.10
7254;DHT22;4060;49.186;9.226;2022-11-23T03:09:21;9.80;68.10
7254;DHT22;4060;49.186;9.226;2022-11-23T03:11:54;9.80;68.10
7254;DHT22;4060;49.186;9.226;2022-11-23T03:14:23;9.80;68.20
7254;DHT22;4060;49.186;9.226;2022-11-23T03:16:53;9.80;68.10
7254;DHT22;4060;49.186;9.226;2022-11-23T03:19:22;9.80;68.20
7254;DHT22;4060;49.186;9.226;2022-11-23T03:21:52;9.80;68.20
7254;DHT22;4060;49.186;9.226;2022-11-23T03:24:21;9.80;68.20
7254;DHT22;4060;49.186;9.226;2022-11-23T03:26:52;9.80;68.30
7254;DHT22;4060;49.186;9.226;2022-11-23T03:29:21;9.80;68.30
7254;DHT22;4060;49.186;9.226;2022-11-23T03:31:52;9.80;68.30
7254;DHT22;4060;49.186;9.226;2022-11-23T03:34:21;9.80;68.30
7254;DHT22;4060;49.186;9.226;2022-11-23T03:36:50;9.80;68.30
7254;DHT22;4060;49.186;9.226;2022-11-23T03:39:20;9.80;68.30
7254;DHT22;4060;49.186;9.226;2022-11-23T03:41:49;9.80;68.40
7254;DHT22;4060;49.186;9.226;2022-11-23T03:44:20;9.80;68.30
7254;DHT22;4060;49.186;9.226;2022-11-23T03:46:50;9.80;68.40
7254;DHT22;4060;49.186;9.226;2022-11-23T03:49:19;9.80;68.40
7254;DHT22;4060;49.186;9.226;2022-11-23T03:51:54;9.80;68.40
7254;DHT22;4060;49.186;9.226;2022-11-23T03:54:23;9.80;68.40
7254;DHT22;4060;49.186;9.226;2022-11-23T03:56:54;9.80;68.40
7254;DHT22;4060;49.186;9.226;2022-11-23T03:59:25;9.80;68.50
7254;DHT22;4060;49.186;9.226;2022-11-23T04:01:55;9.80;68.40
7254;DHT22;4060;49.186;9.226;2022-11-23T04:04:24;9.80;68.40
7254;DHT22;4060;49.186;9.226;2022-11-23T04:06:54;9.80;68.50
7254;DHT22;4060;49.186;9.226;2022-11-23T04:09:23;9.80;68.50
7254;DHT22;4060;49.186;9.226;2022-11-23T04:11:52;9.80;68.50
7254;DHT22;4060;49.186;9.226;2022-11-23T04:14:24;9.80;68.50
7254;DHT22;4060;49.186;9.226;2022-11-23T04:16:54;9.80;68.50
7254;DHT22;4060;49.186;9.226;2022-11-23T04:19:23;9.80;68.50
7254;DHT22;4060;49.186;9.226;2022-11-23T04:21:53;9.80;68.50
7254;DHT22;4060;49.186;9.226;2022-11-23T04:24:23;9.80;68.60
7254;DHT22;4060;49.186;9.226;2022-11-23T04:26:52;9.80;68.60
7254;DHT22;4060;49.186;9.226;2022-11-23T04:29:24;9.80;68.60
7254;DHT22;4060;49.186;9.226;2022-11-23T04:31:53;9.80;68.60
7254;DHT22;4060;49.186;9.226;2022-11-23T04:34:23;9.70;68.50
7254;DHT22;4060;49.186;9.226;2022-11-23T04:36:52;9.80;68.60
7254;DHT22;4060;49.186;9.226;2022-11-23T04:39:22;9.80;68.60
7254;DHT22;4060;49.186;9.226;2022-11-23T04:41:51;9.80;68.60
7254;DHT22;4060;49.186;9.226;2022-11-23T04:44:24;9.80;68.70
7254;DHT22;4060;49.186;9.226;2022-11-23T04:46:53;9.80;68.70
7254;DHT22;4060;49.186;9.226;2022-11-23T04:49:23;9.70;68.50
7254;DHT22;4060;49.186;9.226;2022-11-23T04:51:52;9.70;68.50
7254;DHT22;4060;49.186;9.226;2022-11-23T04:54:22;9.80;68.70
7254;DHT22;4060;49.186;9.226;2022-11-23T04:56:51;9.70;68.60
7254;DHT22;4060;49.186;9.226;2022-11-23T04:59:21;9.70;68.60
7254;DHT22;4060;49.186;9.226;2022-11-23T05:01:53;9.70;68.60
7254;DHT22;4060;49.186;9.226;2022-11-23T05:04:22;9.70;68.60
7254;DHT22;4060;49.186;9.226;2022-11-23T05:06:52;9.70;68.60
7254;DHT22;4060;49.186;9.226;2022-11-23T05:09:22;9.70;68.60
7254;DHT22;4060;49.186;9.226;2022-11-23T05:11:52;9.70;68.60
7254;DHT22;4060;49.186;9.226;2022-11-23T05:14:21;9.70;68.60
7254;DHT22;4060;49.186;9.226;2022-11-23T05:16:53;9.70;68.60
7254;DHT22;4060;49.186;9.226;2022-11-23T05:19:23;9.70;68.60
7254;DHT22;4060;49.186;9.226;2022-11-23T05:21:52;9.70;68.60
7254;DHT22;4060;49.186;9.226;2022-11-23T05:24:21;9.70;68.60
7254;DHT22;4060;49.186;9.226;2022-11-23T05:26:51;9.70;68.60
7254;DHT22;4060;49.186;9.226;2022-11-23T05:29:20;9.70;68.60
7254;DHT22;4060;49.186;9.226;2022-11-23T05:31:49;9.70;68.60
7254;DHT22;4060;49.186;9.226;2022-11-23T05:34:20;9.70;68.60
7254;DHT22;4060;49.186;9.226;2022-11-23T05:36:50;9.70;68.70
7254;DHT22;4060;49.186;9.226;2022-11-23T05:39:19;9.70;68.70
7254;DHT22;4060;49.186;9.226;2022-11-23T05:41:48;9.70;68.60
7254;DHT22;4060;49.186;9.226;2022-11-23T05:44:18;9.70;68.60
7254;DHT22;4060;49.186;9.226;2022-11-23T05:46:47;9.70;68.70
7254;DHT22;4060;49.186;9.226;2022-11-23T05:49:18;9.70;68.70
7254;DHT22;4060;49.186;9.226;2022-11-23T05:51:51;9.70;68.70
7254;DHT22;4060;49.186;9.226;2022-11-23T05:54:20;9.70;68.70
7254;DHT22;4060;49.186;9.226;2022-11-23T05:56:49;9.70;68.70
7254;DHT22;4060;49.186;9.226;2022-11-23T05:59:19;9.70;68.70
7254;DHT22;4060;49.186;9.226;2022-11-23T06:01:48;9.70;68.70
7254;DHT22;4060;49.186;9.226;2022-11-23T06:04:18;9.70;68.70
7254;DHT22;4060;49.186;9.226;2022-11-23T06:06:49;9.70;68.70
7254;DHT22;4060;49.186;9.226;2022-11-23T06:09:20;9.70;68.70
7254;DHT22;4060;49.186;9.226;2022-11-23T06:11:49;9.70;68.80
7254;DHT22;4060;49.186;9.226;2022-11-23T06:14:19;9.70;68.80
7254;DHT22;4060;49.186;9.226;2022-11-23T06:16:49;9.70;68.80
7254;DHT22;4060;49.186;9.226;2022-11-23T06:19:19;9.70;68.80
7254;DHT22;4060;49.186;9.226;2022-11-23T06:22:04;9.70;68.90
7254;DHT22;4060;49.186;9.226;2022-11-23T06:24:33;9.70;68.80
7254;DHT22;4060;49.186;9.226;2022-11-23T06:27:03;9.70;68.80
7254;DHT22;4060;49.186;9.226;2022-11-23T06:29:33;9.70;68.80
7254;DHT22;4060;49.186;9.226;2022-11-23T06:32:03;9.70;68.80
7254;DHT22;4060;49.186;9.226;2022-11-23T06:34:34;9.70;68.80
7254;DHT22;4060;49.186;9.226;2022-11-23T06:37:05;9.70;68.80
7254;DHT22;4060;49.186;9.226;2022-11-23T06:39:35;9.70;68.90
7254;DHT22;4060;49.186;9.226;2022-11-23T06:42:05;9.70;68.80
7254;DHT22;4060;49.186;9.226;2022-11-23T06:44:34;9.70;68.80
7254;DHT22;4060;49.186;9.226;2022-11-23T06:47:03;9.70;68.80
7254;DHT22;4060;49.186;9.226;2022-11-23T06:49:33;9.70;68.80
7254;DHT22;4060;49.186;9.226;2022-11-23T06:52:04;9.70;68.80
7254;DHT22;4060;49.186;9.226;2022-11-23T06:54:34;9.70;68.80
7254;DHT22;4060;49.186;9.226;2022-11-23T06:57:06;9.70;68.80
7254;DHT22;4060;49.186;9.226;2022-11-23T06:59:36;9.70;68.80
7254;DHT22;4060;49.186;9.226;2022-11-23T07:02:07;9.70;68.80
7254;DHT22;4060;49.186;9.226;2022-11-23T07:04:37;9.70;68.80
7254;DHT22;4060;49.186;9.226;2022-11-23T07:07:09;9.70;68.70
7254;DHT22;4060;49.186;9.226;2022-11-23T07:09:38;9.70;68.80
7254;DHT22;4060;49.186;9.226;2022-11-23T07:12:07;9.70;68.80
7254;DHT22;4060;49.186;9.226;2022-11-23T07:14:37;9.70;68.70
7254;DHT22;4060;49.186;9.226;2022-11-23T07:17:06;9.70;68.70
7254;DHT22;4060;49.186;9.226;2022-11-23T07:19:36;9.70;68.80
7254;DHT22;4060;49.186;9.226;2022-11-23T07:22:12;9.70;68.80
7254;DHT22;4060;49.186;9.226;2022-11-23T07:24:42;9.70;68.80
7254;DHT22;4060;49.186;9.226;2022-11-23T07:27:12;9.70;68.70
7254;DHT22;4060;49.186;9.226;2022-11-23T07:29:41;9.70;68.70
7254;DHT22;4060;49.186;9.226;2022-11-23T07:32:10;9.70;68.70
7254;DHT22;4060;49.186;9.226;2022-11-23T07:34:41;9.80;68.80
7254;DHT22;4060;49.186;9.226;2022-11-23T07:37:13;9.80;68.70
7254;DHT22;4060;49.186;9.226;2022-11-23T07:39:43;9.80;68.70
7254;DHT22;4060;49.186;9.226;2022-11-23T07:42:11;9.80;68.70
7254;DHT22;4060;49.186;9.226;2022-11-23T07:44:40;9.80;68.70
7254;DHT22;4060;49.186;9.226;2022-11-23T07:47:10;9.80;68.70
7254;DHT22;4060;49.186;9.226;2022-11-23T07:49:40;9.80;68.70
7254;DHT22;4060;49.186;9.226;2022-11-23T07:52:12;9.80;68.70
7254;DHT22;4060;49.186;9.226;2022-11-23T07:54:41;9.80;68.70
7254;DHT22;4060;49.186;9.226;2022-11-23T07:57:11;9.80;68.70
7254;DHT22;4060;49.186;9.226;2022-11-23T07:59:40;9.80;68.70
7254;DHT22;4060;49.186;9.226;2022-11-23T08:02:13;9.80;68.80
7254;DHT22;4060;49.186;9.226;2022-11-23T08:04:43;9.80;68.80
7254;DHT22;4060;49.186;9.226;2022-11-23T08:07:14;9.80;68.80
7254;DHT22;4060;49.186;9.226;2022-11-23T08:09:44;9.80;68.80
7254;DHT22;4060;49.186;9.226;2022-11-23T08:12:14;9.80;68.80
7254;DHT22;4060;49.186;9.226;2022-11-23T08:14:45;9.80;68.70
7254;DHT22;4060;49.186;9.226;2022-11-23T08:17:14;9.80;68.80
7254;DHT22;4060;49.186;9.226;2022-11-23T08:19:44;9.80;68.80
7254;DHT22;4060;49.186;9.226;2022-11-23T08:22:15;9.80;68.80
7254;DHT22;4060;49.186;9.226;2022-11-23T08:24:44;9.80;68.80
7254;DHT22;4060;49.186;9.226;2022-11-23T08:27:14;9.80;68.80
7254;DHT22;4060;49.186;9.226;2022-11-23T08:29:43;9.80;68.80
7254;DHT22;4060;49.186;9.226;2022-11-23T08:32:13;9.80;68.80
7254;DHT22;4060;49.186;9.226;2022-11-23T08:34:42;9.80;68.80
7254;DHT22;4060;49.186;9.226;2022-11-23T08:37:13;9.80;68.80
7254;DHT22;4060;49.186;9.226;2022-11-23T08:39:45;9.80;68.80
7254;DHT22;4060;49.186;9.226;2022-11-23T08:42:14;9.80;68.90
7254;DHT22;4060;49.186;9.226;2022-11-23T08:44:44;9.80;68.80
7254;DHT22;4060;49.186;9.226;2022-11-23T08:47:14;9.90;68.90
7254;DHT22;4060;49.186;9.226;2022-11-23T08:49:43;9.80;68.80
7254;DHT22;4060;49.186;9.226;2022-11-23T08:52:15;9.90;68.90
7254;DHT22;4060;49.186;9.226;2022-11-23T08:54:44;9.90;68.90
7254;DHT22;4060;49.186;9.226;2022-11-23T08:57:13;9.90;68.90
7254;DHT22;4060;49.186;9.226;2022-11-23T08:59:43;9.90;68.90
7254;DHT22;4060;49.186;9.226;2022-11-23T09:02:12;9.90;68.90
7254;DHT22;4060;49.186;9.226;2022-11-23T09:04:42;9.90;68.90
7254;DHT22;4060;49.186;9.226;2022-11-23T09:07:16;9.90;68.90
7254;DHT22;4060;49.186;9.226;2022-11-23T09:09:45;9.90;69.60
7254;DHT22;4060;49.186;9.226;2022-11-23T09:12:14;9.90;68.90
7254;DHT22;4060;49.186;9.226;2022-11-23T09:14:44;9.90;68.90
7254;DHT22;4060;49.186;9.226;2022-11-23T09:17:13;9.90;68.90
7254;DHT22;4060;49.186;9.226;2022-11-23T09:19:43;9.90;68.90
7254;DHT22;4060;49.186;9.226;2022-11-23T09:22:14;9.90;68.90
7254;DHT22;4060;49.186;9.226;2022-11-23T09:24:43;9.90;68.90
7254;DHT22;4060;49.186;9.226;2022-11-23T09:27:13;10.00;67.80
7254;DHT22;4060;49.186;9.226;2022-11-23T09:29:42;10.00;67.70
7254;DHT22;4060;49.186;9.226;2022-11-23T09:32:11;10.00;67.80
7254;DHT22;4060;49.186;9.226;2022-11-23T09:34:41;10.00;67.70
7254;DHT22;4060;49.186;9.226;2022-11-23T09:37:13;10.00;67.70
7254;DHT22;4060;49.186;9.226;2022-11-23T09:39:42;10.00;67.70
7254;DHT22;4060;49.186;9.226;2022-11-23T09:42:37;10.00;68.40
7254;DHT22;4060;49.186;9.226;2022-11-23T09:45:29;10.00;68.50
7254;DHT22;4060;49.186;9.226;2022-11-23T09:51:03;10.00;67.60
7254;DHT22;4060;49.186;9.226;2022-11-23T09:53:43;10.10;67.70
7254;DHT22;4060;49.186;9.226;2022-11-23T09:56:18;10.10;67.80
7254;DHT22;4060;49.186;9.226;2022-11-23T09:58:55;10.10;67.80
7254;DHT22;4060;49.186;9.226;2022-11-23T10:01:26;10.10;67.90
7254;DHT22;4060;49.186;9.226;2022-11-23T10:03:56;10.20;68.00
7254;DHT22;4060;49.186;9.226;2022-11-23T10:06:28;10.20;68.00
7254;DHT22;4060;49.186;9.226;2022-11-23T10:09:20;10.20;68.00
7254;DHT22;4060;49.186;9.226;2022-11-23T10:12:23;10.20;68.10
7254;DHT22;4060;49.186;9.226;2022-11-23T10:15:03;10.30;68.10
7254;DHT22;4060;49.186;9.226;2022-11-23T10:18:00;10.30;68.00
7254;DHT22;4060;49.186;9.226;2022-11-23T10:20:47;10.30;68.00
7254;DHT22;4060;49.186;9.226;2022-11-23T10:23:28;10.30;68.00
7254;DHT22;4060;49.186;9.226;2022-11-23T10:26:10;10.40;68.00
7254;DHT22;4060;49.186;9.226;2022-11-23T10:28:43;10.40;68.70
7254;DHT22;4060;49.186;9.226;2022-11-23T10:31:14;10.40;67.90
7254;DHT22;4060;49.186;9.226;2022-11-23T10:33:53;10.40;67.90
7254;DHT22;4060;49.186;9.226;2022-11-23T10:36:23;10.50;68.00
7254;DHT22;4060;49.186;9.226;2022-11-23T10:39:15;10.50;67.90
7254;DHT22;4060;49.186;9.226;2022-11-23T10:41:47;10.50;67.90
7254;DHT22;4060;49.186;9.226;2022-11-23T10:44:28;10.50;67.80
7254;DHT22;4060;49.186;9.226;2022-11-23T10:46:58;10.50;67.80
7254;DHT22;4060;49.186;9.226;2022-11-23T10:49:29;10.60;67.90
7254;DHT22;4060;49.186;9.226;2022-11-23T10:52:01;10.60;67.80
7254;DHT22;4060;49.186;9.226;2022-11-23T10:54:33;10.60;67.80
7254;DHT22;4060;49.186;9.226;2022-11-23T10:57:29;10.60;67.70
7254;DHT22;4060;49.186;9.226;2022-11-23T11:00:03;10.70;67.70
7254;DHT22;4060;49.186;9.226;2022-11-23T11:02:39;10.70;67.80
7254;DHT22;4060;49.186;9.226;2022-11-23T11:05:29;10.70;67.70
7254;DHT22;4060;49.186;9.226;2022-11-23T11:08:00;10.70;67.70
7254;DHT22;4060;49.186;9.226;2022-11-23T11:10:48;10.70;67.70
7254;DHT22;4060;49.186;9.226;2022-11-23T11:13:28;10.70;67.60
7254;DHT22;4060;49.186;9.226;2022-11-23T11:16:01;10.80;67.80
7254;DHT22;4060;49.186;9.226;2022-11-23T11:18:32;10.80;67.70
7254;DHT22;4060;49.186;9.226;2022-11-23T11:21:04;10.80;67.60
7254;DHT22;4060;49.186;9.226;2022-11-23T11:23:39;10.80;67.50
7254;DHT22;4060;49.186;9.226;2022-11-23T11:26:18;10.90;67.50
7254;DHT22;4060;49.186;9.226;2022-11-23T11:28:51;10.90;67.40
7254;DHT22;4060;49.186;9.226;2022-11-23T11:31:43;10.90;67.40
7254;DHT22;4060;49.186;9.226;2022-11-23T11:34:22;10.90;67.30
7254;DHT22;4060;49.186;9.226;2022-11-23T11:36:58;11.00;67.40
7254;DHT22;4060;49.186;9.226;2022-11-23T11:39:34;11.00;67.40
7254;DHT22;4060;49.186;9.226;2022-11-23T11:42:15;11.00;67.20
7254;DHT22;4060;49.186;9.226;2022-11-23T11:44:51;11.00;67.10
7254;DHT22;4060;49.186;9.226;2022-11-23T11:47:30;11.10;67.20
7254;DHT22;4060;49.186;9.226;2022-11-23T11:50:05;11.10;67.10
7254;DHT22;4060;49.186;9.226;2022-11-23T11:52:42;11.10;66.90
7254;DHT22;4060;49.186;9.226;2022-11-23T11:55:17;11.10;66.90
7254;DHT22;4060;49.186;9.226;2022-11-23T11:57:54;11.20;66.90
7254;DHT22;4060;49.186;9.226;2022-11-23T12:00:27;11.20;66.70
7254;DHT22;4060;49.186;9.226;2022-11-23T12:03:09;11.20;66.60
7254;DHT22;4060;49.186;9.226;2022-11-23T12:05:46;11.20;66.50
7254;DHT22;4060;49.186;9.226;2022-11-23T12:08:23;11.30;66.50
7254;DHT22;4060;49.186;9.226;2022-11-23T12:10:55;11.30;66.40
7254;DHT22;4060;49.186;9.226;2022-11-23T12:13:29;11.30;66.30
7254;DHT22;4060;49.186;9.226;2022-11-23T12:16:13;11.30;66.20
7254;DHT22;4060;49.186;9.226;2022-11-23T12:19:07;11.40;66.10
7254;DHT22;4060;49.186;9.226;2022-11-23T12:21:58;11.40;65.90
7254;DHT22;4060;49.186;9.226;2022-11-23T12:24:55;11.40;65.80
7254;DHT22;4060;49.186;9.226;2022-11-23T12:27:36;11.50;65.70
7254;DHT22;4060;49.186;9.226;2022-11-23T12:30:21;11.50;65.70
7254;DHT22;4060;49.186;9.226;2022-11-23T12:33:19;11.50;65.40
7254;DHT22;4060;49.186;9.226;2022-11-23T12:36:03;11.50;65.10
7254;DHT22;4060;49.186;9.226;2022-11-23T12:38:43;11.50;64.90
7254;DHT22;4060;49.186;9.226;2022-11-23T12:41:23;11.60;64.90
7254;DHT22;4060;49.186;9.226;2022-11-23T12:44:22;11.60;64.60
7254;DHT22;4060;49.186;9.226;2022-11-23T12:47:03;11.60;64.50
7254;DHT22;4060;49.186;9.226;2022-11-23T12:49:45;11.60;64.40
7254;DHT22;4060;49.186;9.226;2022-11-23T12:52:36;11.60;64.20
7254;DHT22;4060;49.186;9.226;2022-11-23T12:55:19;11.70;64.20
7254;DHT22;4060;49.186;9.226;2022-11-23T12:57:58;11.70;64.00
7254;DHT22;4060;49.186;9.226;2022-11-23T13:00:35;11.70;63.70
7254;DHT22;4060;49.186;9.226;2022-11-23T13:03:40;11.70;63.50
7254;DHT22;4060;49.186;9.226;2022-11-23T13:06:46;11.70;63.20
7254;DHT22;4060;49.186;9.226;2022-11-23T13:09:43;11.80;63.30
7254;DHT22;4060;49.186;9.226;2022-11-23T13:12:40;11.80;63.20
7254;DHT22;4060;49.186;9.226;2022-11-23T13:15:32;11.80;63.10
7254;DHT22;4060;49.186;9.226;2022-11-23T13:18:12;11.80;62.80
7254;DHT22;4060;49.186;9.226;2022-11-23T13:21:07;11.80;62.50
7254;DHT22;4060;49.186;9.226;2022-11-23T13:23:45;11.80;62.40
7254;DHT22;4060;49.186;9.226;2022-11-23T13:26:16;11.90;62.40
7254;DHT22;4060;49.186;9.226;2022-11-23T13:28:46;11.90;62.00
7254;DHT22;4060;49.186;9.226;2022-11-23T13:31:25;11.90;61.70
7254;DHT22;4060;49.186;9.226;2022-11-23T13:33:57;11.90;61.40
7254;DHT22;4060;49.186;9.226;2022-11-23T13:36:40;11.90;61.20
7254;DHT22;4060;49.186;9.226;2022-11-23T13:42:31;12.00;60.80
7254;DHT22;4060;49.186;9.226;2022-11-23T13:45:26;12.00;60.80
7254;DHT22;4060;49.186;9.226;2022-11-23T13:48:19;12.00;60.50
7254;DHT22;4060;49.186;9.226;2022-11-23T13:50:58;12.00;60.20
7254;DHT22;4060;49.186;9.226;2022-11-23T13:53:30;12.00;60.20
7254;DHT22;4060;49.186;9.226;2022-11-23T13:56:25;12.00;60.10
7254;DHT22;4060;49.186;9.226;2022-11-23T13:59:26;12.00;59.90
7254;DHT22;4060;49.186;9.226;2022-11-23T14:02:14;12.00;59.80
7254;DHT22;4060;49.186;9.226;2022-11-23T14:08:13;12.00;59.70
7254;DHT22;4060;49.186;9.226;2022-11-23T14:10:45;12.00;59.80
7254;DHT22;4060;49.186;9.226;2022-11-23T14:13:19;12.10;59.90
7254;DHT22;4060;49.186;9.226;2022-11-23T14:15:58;12.10;59.80
7254;DHT22;4060;49.186;9.226;2022-11-23T14:18:44;12.10;59.80
7254;DHT22;4060;49.186;9.226;2022-11-23T14:21:17;12.10;59.80
7254;DHT22;4060;49.186;9.226;2022-11-23T14:24:19;12.10;59.80
7254;DHT22;4060;49.186;9.226;2022-11-23T14:27:03;12.10;59.70
7254;DHT22;4060;49.186;9.226;2022-11-23T14:30:04;12.10;59.60
7254;DHT22;4060;49.186;9.226;2022-11-23T14:32:50;12.10;59.50
7254;DHT22;4060;49.186;9.226;2022-11-23T14:35:27;12.10;59.50
7254;DHT22;4060;49.186;9.226;2022-11-23T14:38:29;12.00;59.50
7254;DHT22;4060;49.186;9.226;2022-11-23T14:41:05;12.10;59.50
7254;DHT22;4060;49.186;9.226;2022-11-23T14:43:38;12.00;59.40
7254;DHT22;4060;49.186;9.226;2022-11-23T14:46:16;12.00;59.40
7254;DHT22;4060;49.186;9.226;2022-11-23T14:48:48;12.00;59.40
7254;DHT22;4060;49.186;9.226;2022-11-23T14:51:18;12.00;59.40
7254;DHT22;4060;49.186;9.226;2022-11-23T14:53:50;12.00;59.40
7254;DHT22;4060;49.186;9.226;2022-11-23T14:56:30;12.00;59.50
7254;DHT22;4060;49.186;9.226;2022-11-23T14:59:03;12.00;59.50
7254;DHT22;4060;49.186;9.226;2022-11-23T15:01:34;12.00;59.50
7254;DHT22;4060;49.186;9.226;2022-11-23T15:04:16;12.00;59.50
7254;DHT22;4060;49.186;9.226;2022-11-23T15:06:53;12.00;59.50
7254;DHT22;4060;49.186;9.226;2022-11-23T15:09:40;12.00;59.60
7254;DHT22;4060;49.186;9.226;2022-11-23T15:12:23;12.00;59.70
7254;DHT22;4060;49.186;9.226;2022-11-23T15:14:55;12.00;59.70
7254;DHT22;4060;49.186;9.226;2022-11-23T15:17:25;12.00;59.80
7254;DHT22;4060;49.186;9.226;2022-11-23T15:19:59;12.00;59.80
7254;DHT22;4060;49.186;9.226;2022-11-23T15:22:31;12.00;59.80
7254;DHT22;4060;49.186;9.226;2022-11-23T15:25:06;12.00;59.80
7254;DHT22;4060;49.186;9.226;2022-11-23T15:27:39;12.00;59.90
7254;DHT22;4060;49.186;9.226;2022-11-23T15:30:17;12.00;59.90
7254;DHT22;4060;49.186;9.226;2022-11-23T15:32:57;11.90;59.90
7254;DHT22;4060;49.186;9.226;2022-11-23T15:35:32;12.00;60.10
7254;DHT22;4060;49.186;9.226;2022-11-23T15:38:05;11.90;60.00
7254;DHT22;4060;49.186;9.226;2022-11-23T15:40:37;11.90;60.00
7254;DHT22;4060;49.186;9.226;2022-11-23T15:43:11;11.90;60.10
7254;DHT22;4060;49.186;9.226;2022-11-23T15:46:02;11.90;60.20
7254;DHT22;4060;49.186;9.226;2022-11-23T15:48:34;11.90;60.20
7254;DHT22;4060;49.186;9.226;2022-11-23T15:51:17;11.90;60.30
7254;DHT22;4060;49.186;9.226;2022-11-23T15:53:49;11.90;60.20
7254;DHT22;4060;49.186;9.226;2022-11-23T15:56:22;11.80;60.10
7254;DHT22;4060;49.186;9.226;2022-11-23T15:58:52;11.80;60.20
7254;DHT22;4060;49.186;9.226;2022-11-23T16:01:23;11.90;60.40
7254;DHT22;4060;49.186;9.226;2022-11-23T16:03:55;11.80;60.30
7254;DHT22;4060;49.186;9.226;2022-11-23T16:06:38;11.80;60.30
7254;DHT22;4060;49.186;9.226;2022-11-23T16:09:33;11.80;60.40
7254;DHT22;4060;49.186;9.226;2022-11-23T16:12:18;11.80;60.40
7254;DHT22;4060;49.186;9.226;2022-11-23T16:14:49;11.80;60.40
7254;DHT22;4060;49.186;9.226;2022-11-23T16:17:21;11.80;60.50
7254;DHT22;4060;49.186;9.226;2022-11-23T16:19:51;11.80;60.40
7254;DHT22;4060;49.186;9.226;2022-11-23T16:22:27;11.70;60.30
7254;DHT22;4060;49.186;9.226;2022-11-23T16:25:04;11.70;60.30
7254;DHT22;4060;49.186;9.226;2022-11-23T16:27:35;11.70;60.30
7254;DHT22;4060;49.186;9.226;2022-11-23T16:30:06;11.70;60.20
7254;DHT22;4060;49.186;9.226;2022-11-23T16:32:50;11.70;60.20
7254;DHT22;4060;49.186;9.226;2022-11-23T16:35:20;11.70;60.20
7254;DHT22;4060;49.186;9.226;2022-11-23T16:37:52;11.70;60.20
7254;DHT22;4060;49.186;9.226;2022-11-23T16:40:22;11.70;60.20
7254;DHT22;4060;49.186;9.226;2022-11-23T16:42:52;11.70;60.10
7254;DHT22;4060;49.186;9.226;2022-11-23T16:45:22;11.70;60.10
7254;DHT22;4060;49.186;9.226;2022-11-23T16:47:52;11.70;60.00
7254;DHT22;4060;49.186;9.226;2022-11-23T16:50:23;11.70;60.00
7254;DHT22;4060;49.186;9.226;2022-11-23T16:52:54;11.70;59.90
7254;DHT22;4060;49.186;9.226;2022-11-23T16:55:23;11.70;59.90
7254;DHT22;4060;49.186;9.226;2022-11-23T16:57:53;11.70;59.90
7254;DHT22;4060;49.186;9.226;2022-11-23T17:00:23;11.60;59.90
7254;DHT22;4060;49.186;9.226;2022-11-23T17:02:53;11.70;60.00